Participated 4 times
Between 1958 and 1964
Camille Le Menn, France
Tour de France 2026 starts from Barcelona, Spain in

Stats and Facts from
Tour de France.

2026   2025   2024   2023  2022  2021  2020  2019   2018  2017   2016   2015  2014  2013   2012   2011  2010   2009   2008   2007   2006   2005   2004   2003   2002   2001   2000   1999   1998   1997  1996   1995   1994   1993   1992  1991   1990   1989   1988   1987   1986   1985   1984   1983  1982  1981   1980   1979  1978  1977   1976  1975  1974  1973   1972   1971   1970  1969   1968   1967   1966   1965  1964  1963   1962   1961   1960   1959   1958   1957  1956   1955   1954   1953   1952  1951  1950  1949   1948  1947  1939   1938   1937   1936   1935   1934   1933  1932   1931   1930  1929   1928   1927   1926  1925  1924  1923   1922   1921   1920   1919  1914   1913   1912   1911   1910  1909   1908   1907   1906  1905  1904   1903 

Tourstats
Sitemap

After stage 21 - 2025:
 16451 starters.
  5463 different riders.
  689 teams.
  2398 stages.
  470 restdays.
  466506.50 km.
  5925 abandoned riders.

Click map for 1951 route.
Facts from Tour de France 1951 Additional info and images from 1951.
  |   Stages.  |   Stage winners.  |   Days in jerseys.  |   Teams.  |   All riders.  |   All riders by age.  |   All riders from.  |  

  |   Rookies.  |   Withdrawls.  |   Average speed.  |   GC.  |   Polka  |   Green  |   White  |   Summits. (In tour)  |   Miscellaneous.  |  

Stage 11 on July 15th. 1951
Pick a stage:  1  2  3  4  5  6  7  8  9  10  11  12  13  14  15  16  17  18  19  20  21  22  23  24  

After stage 11:    Roger Leveque  
  Brive-la-GaillardeAgen | Dist: 177.00km. | Winner: Hugo Koblet

Podium

Average speed for all riders in stage:  37,624 km./hr.

1
 Hugo Koblet  Switzerland04h 32' 41"=38,946  km/h

2
 Marcel Michel  Paris04h 36' 16"+  00:03:35 =38,441  km/h

3
 Gerrit Peters  Holland04h 36' 16"+  00:03:35 =38,441  km/h

4  Germain Derycke  Belgium04h 36' 16"+  00:03:35 =38,441  km/h

5  Jean Robic  Paris04h 36' 16"+  00:03:35 =38,441  km/h

6  Louis Caput  Paris04h 36' 16"+  00:03:35 =38,441  km/h

7  Alois Vansteenkiste  Belgium04h 36' 16"+  00:03:35 =38,441  km/h

7  Wim van Est  Holland04h 36' 16"+  00:03:35 =38,441  km/h

7  Wout Wagtmans  Holland04h 36' 16"+  00:03:35 =38,441  km/h

7  Louison Bobet  France04h 36' 16"+  00:03:35 =38,441  km/h

7  Raphaël Geminiani  France04h 36' 16"+  00:03:35 =38,441  km/h

7  Gilbert Bauvin  Est-Sud Est04h 36' 16"+  00:03:35 =38,441  km/h

7  Bernardo Ruíz  Spain04h 36' 16"+  00:03:35 =38,441  km/h

7  Gerrit Voorting  Holland04h 36' 16"+  00:03:35 =38,441  km/h

7  Joseph Morvan  Ouest-Sud Ouest04h 36' 16"+  00:03:35 =38,441  km/h

7  Pierre Barbotin  France04h 36' 16"+  00:03:35 =38,441  km/h

7  Nello Lauredi  France04h 36' 16"+  00:03:35 =38,441  km/h

7  Stan Ockers  Belgium04h 36' 16"+  00:03:35 =38,441  km/h

7  Giuseppe Mirando  Est-Sud Est04h 36' 16"+  00:03:35 =38,441  km/h

7  Vincent Vitetta  Est-Sud Est04h 36' 16"+  00:03:35 =38,441  km/h

7  Marcel Huber  Switzerland04h 36' 16"+  00:03:35 =38,441  km/h

7  Dominique Forlini  Paris04h 36' 16"+  00:03:35 =38,441  km/h

7  Jean-Apotre Lazarides  France04h 36' 16"+  00:03:35 =38,441  km/h

7  Lucien Lazarides  France04h 36' 16"+  00:03:35 =38,441  km/h

7  Pierre Molineris  Est-Sud Est04h 36' 16"+  00:03:35 =38,441  km/h

7  Raoul Remy  France04h 36' 16"+  00:03:35 =38,441  km/h

7  Marcel De Mulder  Belgium04h 36' 16"+  00:03:35 =38,441  km/h

7  Manuel Rodriguez  Spain04h 36' 16"+  00:03:35 =38,441  km/h

7  Georges Meunier  Ouest-Sud Ouest04h 36' 16"+  00:03:35 =38,441  km/h

7  Jean-Louis Carle  Paris04h 36' 16"+  00:03:35 =38,441  km/h

7  Gino Bartali  Italy04h 36' 16"+  00:03:35 =38,441  km/h

7  Jean Diederich  Luxembourg04h 36' 16"+  00:03:35 =38,441  km/h

7  Georges Aeschlimann  Switzerland04h 36' 16"+  00:03:35 =38,441  km/h

7  Roger Decock  Belgium04h 36' 16"+  00:03:35 =38,441  km/h

7  André Rosseel  Belgium04h 36' 16"+  00:03:35 =38,441  km/h

7  Eduard Van Ende  Belgium04h 36' 16"+  00:03:35 =38,441  km/h

7  Fausto Coppi  Italy04h 36' 16"+  00:03:35 =38,441  km/h

7  Franco Franchi  Italy04h 36' 16"+  00:03:35 =38,441  km/h

7  Hans Dekkers  Holland04h 36' 16"+  00:03:35 =38,441  km/h

7  Paul Giguet  Est-Sud Est04h 36' 16"+  00:03:35 =38,441  km/h

7  Jean Delahaye  Île-de-France04h 36' 16"+  00:03:35 =38,441  km/h

7  Hans Sommer  Switzerland04h 36' 16"+  00:03:35 =38,441  km/h

7  Leo Weilenmann  Switzerland04h 36' 16"+  00:03:35 =38,441  km/h

7  Serifano Biagioni  Italy04h 36' 16"+  00:03:35 =38,441  km/h

7  Marcel Verschueren  Belgium04h 36' 16"+  00:03:35 =38,441  km/h

7  Henri Kass  Luxembourg04h 36' 16"+  00:03:35 =38,441  km/h

7  André Labeylie  Île-de-France04h 36' 16"+  00:03:35 =38,441  km/h

7  Robert Castelin  Est-Sud Est04h 36' 16"+  00:03:35 =38,441  km/h

7  Pierre Cogan  Ouest-Sud Ouest04h 36' 16"+  00:03:35 =38,441  km/h

7  Roger Leveque  Ouest-Sud Ouest04h 36' 16"+  00:03:35 =38,441  km/h

7  Fiorenzo Magni  Italy04h 36' 16"+  00:03:35 =38,441  km/h

52  Jean-Marie Goasmat  Ouest-Sud Ouest04h 40' 05"+  00:07:24 =37,917  km/h

53  Virgilio Salimbeni  Italy04h 40' 05"+  00:07:24 =37,917  km/h

54  Jean-Baptiste Dotto  Est-Sud Est04h 41' 36"+  00:08:55 =37,713  km/h

56  Andrea Carrea  Italy04h 44' 16"+  00:11:35 =37,359  km/h

57  Ettore Milano  Italy04h 44' 16"+  00:11:35 =37,359  km/h

58  Alois De Hertog  Belgium04h 46' 32"+  00:13:51 =37,064  km/h

59  Jacques Marinelli  Île-de-France04h 46' 32"+  00:13:51 =37,064  km/h

60  Louis Deprez  Île-de-France04h 46' 32"+  00:13:51 =37,064  km/h

61  Jean Goldschmit  Luxembourg04h 46' 32"+  00:13:51 =37,064  km/h

62  Miguel Gual Bauza  Spain04h 46' 32"+  00:13:51 =37,064  km/h

63  José Serra Gil  Spain04h 46' 32"+  00:13:51 =37,064  km/h

64  Willy Kemp  Luxembourg04h 46' 32"+  00:13:51 =37,064  km/h

65  Angelo Colinelli  Est-Sud Est04h 51' 57"+  00:19:16 =36,376  km/h

66  Dalmácio Langarica  Spain04h 51' 57"+  00:19:16 =36,376  km/h

67  Luciano Pezzi  Italy04h 51' 57"+  00:19:16 =36,376  km/h

68  Jean-Marie Cieliczka  Ouest-Sud Ouest04h 51' 57"+  00:19:16 =36,376  km/h

69  Jean Mayen  North Africa04h 51' 57"+  00:19:16 =36,376  km/h

70  Armand Baeyens  Belgium04h 51' 57"+  00:19:16 =36,376  km/h

70  Hilaire Couvreur  Belgium04h 51' 57"+  00:19:16 =36,376  km/h

70  Bernard Gauthier  France04h 51' 57"+  00:19:16 =36,376  km/h

70  Roger Walkowiak  Ouest-Sud Ouest04h 51' 57"+  00:19:16 =36,376  km/h

70  Adolphe Deledda  Est-Sud Est04h 51' 57"+  00:19:16 =36,376  km/h

70  Maurice Diot  Paris04h 51' 57"+  00:19:16 =36,376  km/h

70  Roger Buchonnet  Est-Sud Est04h 51' 57"+  00:19:16 =36,376  km/h

70  Lucien Teisseire  France04h 51' 57"+  00:19:16 =36,376  km/h

70  Francisco Masip  Spain04h 51' 57"+  00:19:16 =36,376  km/h

70  André Ruffet  Ouest-Sud Ouest04h 51' 57"+  00:19:16 =36,376  km/h

70  Jean Gueguen  France04h 51' 57"+  00:19:16 =36,376  km/h

70  Emile Baffert  Est-Sud Est04h 51' 57"+  00:19:16 =36,376  km/h

70  Gottfried Weilenmann  Switzerland04h 51' 57"+  00:19:16 =36,376  km/h

70  Robert Bonnaventure  Paris04h 51' 57"+  00:19:16 =36,376  km/h

70  Edouard Muller  France04h 51' 57"+  00:19:16 =36,376  km/h

70  Gino Sciardis  Île-de-France04h 51' 57"+  00:19:16 =36,376  km/h

70  Abdel-Kader Zaaf  North Africa04h 51' 57"+  00:19:16 =36,376  km/h

70  Sylvio Pedroni  Italy04h 51' 57"+  00:19:16 =36,376  km/h

70  Jean Baldassari  France04h 51' 57"+  00:19:16 =36,376  km/h

70  Victorio Ruiz Garcia  Spain04h 51' 57"+  00:19:16 =36,376  km/h

70  Pierre Brambilla  Est-Sud Est04h 51' 57"+  00:19:16 =36,376  km/h

70  Raymond Guegan  Ouest-Sud Ouest04h 51' 57"+  00:19:16 =36,376  km/h

70  Andre Mahé  Ouest-Sud Ouest04h 51' 57"+  00:19:16 =36,376  km/h

55  Robert Desbats  Ouest-Sud Ouest04h 51' 59"+  00:19:18 =36,372  km/h


Withdrawls: 2
 RiderTeamReason
30   Isidoor De Ryck BelgiumDid not finish
49   Robert Bintz LuxembourgDid not finish
Todays birthdays.

1869 • Adolphe Dorion
1884 • Achille Germain
1886 • Emile Eigeldinger
1896 • Andre Léger
1907 • Frans Dictus
1921 • Alberto Ghirardi
1934 • Joseph Planckaert
1945 • Leif Mortensen
1952 • Alex Van Linden
1960 • Roberto Bressan
1960 • Bernard Chesneau
1962 • Paul Watson
1963 • Juan Rozas
1965 • Jean-Pierre Heynderickx
1967 • José-Manuel Oliveira
1970 • Wilfried Nelissen
1980 • Nick Nuyens
1996 • Jai Hindley

 

Optimized for Chrome - Edge
and Opera browsers.